Time;durP1;ratioP1;P1;durP2;ratioP2;P2;SDS_P1;SDS_P2;PMS_P1;PMS_P2;Temp;Humidity;BMP_temperature;BMP_pressure;BME280_temperature;BME280_humidity;BME280_pressure;Samples;Min_cycle;Max_cycle;Signal;HPM_P1;HPM_P2
2021/06/18 00:00:47;;;;;;;1.40;0.28;;;;;;;-148.58;100.00;55229.56;5034355;28;20053;-58
2021/06/18 00:03:12;;;;;;;0.40;0.30;;;;;;;-148.58;100.00;55229.56;5034488;28;20076;-58
2021/06/18 00:05:38;;;;;;;1.17;0.32;;;;;;;-148.58;100.00;55229.56;5034507;28;20038;-58
2021/06/18 00:08:03;;;;;;;0.22;0.20;;;;;;;-148.58;100.00;55229.56;5035018;28;20026;-58
2021/06/18 00:10:29;;;;;;;0.10;0.00;;;;;;;-148.58;100.00;55229.56;5034566;28;20025;-58
2021/06/18 00:12:54;;;;;;;0.57;0.20;;;;;;;-148.58;100.00;55229.56;5034298;28;20460;-58
2021/06/18 00:15:20;;;;;;;0.15;0.10;;;;;;;-148.58;100.00;55229.56;5030555;28;20116;-58
2021/06/18 00:17:46;;;;;;;0.50;0.30;;;;;;;-148.58;100.00;55229.56;5033025;28;20059;-59
2021/06/18 00:20:12;;;;;;;0.17;0.10;;;;;;;-148.58;100.00;55229.56;5033601;28;20018;-57
2021/06/18 00:22:38;;;;;;;1.17;0.30;;;;;;;-148.58;100.00;55229.56;5034141;28;20030;-58
2021/06/18 00:25:06;;;;;;;0.30;0.10;;;;;;;-148.58;100.00;55229.56;5034232;28;20040;-58
2021/06/18 00:27:31;;;;;;;0.25;0.20;;;;;;;-148.58;100.00;55229.56;5034050;28;20095;-58
2021/06/18 00:29:57;;;;;;;0.22;0.20;;;;;;;-148.58;100.00;55229.56;5033855;28;20460;-58
2021/06/18 00:32:22;;;;;;;0.40;0.20;;;;;;;-148.58;100.00;55229.56;5034111;28;20046;-57
2021/06/18 00:34:47;;;;;;;1.75;0.20;;;;;;;-148.58;100.00;55229.56;5033861;28;20064;-58
2021/06/18 00:37:13;;;;;;;0.45;0.20;;;;;;;-148.58;100.00;55229.56;5034081;28;20036;-58
2021/06/18 00:39:40;;;;;;;0.47;0.20;;;;;;;-148.58;100.00;55229.56;5033800;28;20021;-58
2021/06/18 00:42:06;;;;;;;0.40;0.20;;;;;;;-148.58;100.00;55229.56;5033700;28;20037;-58
2021/06/18 00:44:32;;;;;;;0.63;0.10;;;;;;;-148.58;100.00;55229.56;5033819;28;20030;-58
2021/06/18 00:46:57;;;;;;;0.17;0.17;;;;;;;-148.58;100.00;55229.56;5033655;28;20032;-58
2021/06/18 00:49:24;;;;;;;0.28;0.10;;;;;;;-148.58;100.00;55229.56;5032638;28;20025;-57
2021/06/18 00:51:50;;;;;;;0.10;0.10;;;;;;;-148.58;100.00;55229.56;5033777;28;20018;-58
2021/06/18 00:54:27;;;;;;;0.15;0.10;;;;;;;-148.58;100.00;55229.56;5033189;28;20538;-57
2021/06/18 00:57:02;;;;;;;0.63;0.10;;;;;;;-148.58;100.00;55229.56;5034568;28;20017;-58
2021/06/18 00:59:28;;;;;;;0.55;0.40;;;;;;;-148.58;100.00;55229.56;5028152;28;20411;-58
2021/06/18 01:01:54;;;;;;;0.35;0.20;;;;;;;-148.58;100.00;55229.56;5033177;28;20155;-57
2021/06/18 01:04:26;;;;;;;0.40;0.10;;;;;;;-148.58;100.00;55229.56;5033508;28;20040;-58
2021/06/18 01:07:05;;;;;;;0.20;0.20;;;;;;;-148.58;100.00;55229.56;5033003;28;20021;-57
2021/06/18 01:09:41;;;;;;;0.40;0.20;;;;;;;-148.58;100.00;55229.56;5033410;28;20018;-58
2021/06/18 01:12:13;;;;;;;0.22;0.20;;;;;;;-148.58;100.00;55229.56;5033188;28;20026;-57
2021/06/18 01:14:58;;;;;;;0.25;0.20;;;;;;;-148.58;100.00;55229.56;5033179;28;20033;-57
2021/06/18 01:17:25;;;;;;;;;;;;;;;-148.58;100.00;55229.56;5033652;28;20104;-58
2021/06/18 01:19:53;;;;;;;0.17;0.10;;;;;;;-148.58;100.00;55229.56;5032945;28;20016;-58
2021/06/18 01:22:22;;;;;;;0.20;0.13;;;;;;;-148.58;100.00;55229.56;5033096;28;20112;-58
2021/06/18 01:25:04;;;;;;;0.75;0.10;;;;;;;-148.58;100.00;55229.56;5032934;28;20029;-57
2021/06/18 01:27:33;;;;;;;0.73;0.20;;;;;;;-148.58;100.00;55229.56;5032806;28;20391;-57
2021/06/18 01:30:04;;;;;;;0.38;0.13;;;;;;;-148.58;100.00;55229.56;5032663;28;20039;-58
2021/06/18 01:32:55;;;;;;;0.47;0.20;;;;;;;-148.58;100.00;55229.56;5033060;28;20028;-57
2021/06/18 01:35:23;;;;;;;0.52;0.30;;;;;;;-148.58;100.00;55229.56;5032917;28;20021;-57
2021/06/18 01:37:52;;;;;;;0.15;0.15;;;;;;;-148.58;100.00;55229.56;5032685;28;20032;-57
2021/06/18 01:40:19;;;;;;;1.30;0.30;;;;;;;-148.58;100.00;55229.56;5032824;28;20028;-57
2021/06/18 01:42:47;;;;;;;0.15;0.08;;;;;;;-148.58;100.00;55229.56;5032701;28;20040;-57
2021/06/18 01:45:15;;;;;;;0.52;0.10;;;;;;;-148.58;100.00;55229.56;5032850;28;20029;-58
2021/06/18 01:47:43;;;;;;;0.85;0.20;;;;;;;-148.58;100.00;55229.56;5015015;28;20025;-57
2021/06/18 01:50:12;;;;;;;0.38;0.10;;;;;;;-148.58;100.00;55229.56;5032680;28;20051;-57
2021/06/18 01:52:40;;;;;;;0.25;0.10;;;;;;;-148.58;100.00;55229.56;5032734;28;20067;-57
2021/06/18 01:55:06;;;;;;;0.30;0.10;;;;;;;-148.58;100.00;55229.56;5032558;28;20036;-57
2021/06/18 01:57:33;;;;;;;0.63;0.20;;;;;;;-148.58;100.00;55229.56;5032590;28;20049;-57
2021/06/18 02:00:00;;;;;;;0.32;0.10;;;;;;;-148.58;100.00;55229.56;5032391;28;20060;-58
2021/06/18 02:02:28;;;;;;;0.38;0.17;;;;;;;-148.58;100.00;55229.56;5031911;28;20081;-57
2021/06/18 02:04:55;;;;;;;0.10;0.10;;;;;;;-148.58;100.00;55229.56;5031590;28;20180;-57
2021/06/18 02:07:23;;;;;;;0.43;0.30;;;;;;;-148.58;100.00;55229.56;5031828;28;20025;-57
2021/06/18 02:09:50;;;;;;;0.50;0.20;;;;;;;-148.58;100.00;55229.56;5032358;28;20028;-58
2021/06/18 02:12:17;;;;;;;0.93;0.22;;;;;;;-148.58;100.00;55229.56;5031453;28;20371;-58
2021/06/18 02:14:43;;;;;;;0.40;0.30;;;;;;;-148.58;100.00;55229.56;5032653;28;20345;-58
2021/06/18 02:17:09;;;;;;;0.30;0.30;;;;;;;-148.58;100.00;55229.56;5035656;28;20017;-58
2021/06/18 02:19:37;;;;;;;0.40;0.20;;;;;;;-148.58;100.00;55229.56;5031621;28;20353;-59
2021/06/18 02:22:06;;;;;;;0.65;0.38;;;;;;;-148.58;100.00;55229.56;5031350;28;20021;-58
2021/06/18 02:24:33;;;;;;;2.58;0.45;;;;;;;-148.58;100.00;55229.56;5031872;28;20407;-59
2021/06/18 02:27:00;;;;;;;0.13;0.10;;;;;;;-148.58;100.00;55229.56;5031120;28;20017;-58
2021/06/18 02:29:26;;;;;;;0.30;0.22;;;;;;;-148.58;100.00;55229.56;5031472;28;20033;-58
2021/06/18 02:31:56;;;;;;;0.60;0.20;;;;;;;-148.58;100.00;55229.56;5031052;28;20104;-58
2021/06/18 02:34:21;;;;;;;0.55;0.20;;;;;;;-148.58;100.00;55229.56;5031314;28;20047;-58
2021/06/18 02:36:46;;;;;;;0.17;0.10;;;;;;;-148.58;100.00;55229.56;5031220;28;20379;-59
2021/06/18 02:39:13;;;;;;;0.25;0.17;;;;;;;-148.58;100.00;55229.56;5031435;28;20025;-58
2021/06/18 02:41:39;;;;;;;0.20;0.10;;;;;;;-148.58;100.00;55229.56;5033843;28;20061;-59
2021/06/18 02:44:05;;;;;;;0.68;0.22;;;;;;;-148.58;100.00;55229.56;5035285;28;20028;-58
2021/06/18 02:46:40;;;;;;;0.22;0.10;;;;;;;-148.58;100.00;55229.56;5034081;28;20025;-58
2021/06/18 02:49:09;;;;;;;0.47;0.20;;;;;;;-148.58;100.00;55229.56;5034845;28;20025;-58
2021/06/18 02:51:45;;;;;;;0.77;0.20;;;;;;;-148.58;100.00;55229.56;5035029;28;20409;-58
2021/06/18 02:54:44;;;;;;;0.90;0.20;;;;;;;-148.58;100.00;55229.56;5034614;28;20021;-57
2021/06/18 02:57:18;;;;;;;0.57;0.20;;;;;;;-148.58;100.00;55229.56;5034299;28;20388;-56
2021/06/18 02:59:53;;;;;;;;;;;;;;;-148.58;100.00;55229.56;5034905;28;20139;-56
2021/06/18 03:02:20;;;;;;;;;;;;;;;-148.58;100.00;55229.56;5032241;28;65581;-56
2021/06/18 03:04:47;;;;;;;0.08;0.05;;;;;;;-148.58;100.00;55229.56;5035158;28;20371;-56
2021/06/18 03:07:16;;;;;;;0.20;0.10;;;;;;;-148.58;100.00;55229.56;5035878;28;20349;-59
2021/06/18 03:09:48;;;;;;;0.30;0.10;;;;;;;-148.58;100.00;55229.56;5035622;28;20068;-58
2021/06/18 03:12:15;;;;;;;0.40;0.20;;;;;;;-148.58;100.00;55229.56;5036392;28;20028;-58
2021/06/18 03:14:44;;;;;;;0.47;0.28;;;;;;;-148.58;100.00;55229.56;5036399;28;20025;-58
2021/06/18 03:17:14;;;;;;;0.38;0.13;;;;;;;-148.58;100.00;55229.56;5036283;28;20022;-58
2021/06/18 03:19:42;;;;;;;0.50;0.20;;;;;;;-148.58;100.00;55229.56;5034820;28;20032;-57
2021/06/18 03:22:10;;;;;;;0.95;0.20;;;;;;;-148.58;100.00;55229.56;5035599;28;20022;-58
2021/06/18 03:24:37;;;;;;;0.20;0.10;;;;;;;-148.58;100.00;55229.56;5035347;28;20101;-58
2021/06/18 03:27:03;;;;;;;0.20;0.20;;;;;;;-148.58;100.00;55229.56;5034872;28;20442;-58
2021/06/18 03:29:30;;;;;;;0.25;0.20;;;;;;;-148.58;100.00;55229.56;5035279;28;20036;-58
2021/06/18 03:31:57;;;;;;;0.35;0.15;;;;;;;-148.58;100.00;55229.56;5035090;28;20021;-57
2021/06/18 03:34:25;;;;;;;0.15;0.15;;;;;;;-148.58;100.00;55229.56;5035144;28;20045;-58
2021/06/18 03:36:52;;;;;;;0.40;0.20;;;;;;;-148.58;100.00;55229.56;5034835;28;20025;-57
2021/06/18 03:39:19;;;;;;;0.30;0.10;;;;;;;-148.58;100.00;55229.56;5035123;28;20028;-58
2021/06/18 03:41:45;;;;;;;0.30;0.10;;;;;;;-148.58;100.00;55229.56;5034712;28;20110;-57
2021/06/18 03:44:10;;;;;;;0.10;0.10;;;;;;;-148.58;100.00;55229.56;5035050;28;20429;-58
2021/06/18 03:46:38;;;;;;;0.40;0.20;;;;;;;-148.58;100.00;55229.56;5034932;28;20021;-57
2021/06/18 03:49:05;;;;;;;0.47;0.10;;;;;;;-148.58;100.00;55229.56;5034793;28;20034;-58
2021/06/18 03:51:30;;;;;;;0.50;0.25;;;;;;;-148.58;100.00;55229.56;5030966;28;20550;-57
2021/06/18 03:53:56;;;;;;;0.93;0.10;;;;;;;-148.58;100.00;55229.56;5034027;28;20036;-58
2021/06/18 03:56:22;;;;;;;0.10;0.10;;;;;;;-148.58;100.00;55229.56;5033215;28;20057;-58
2021/06/18 03:58:49;;;;;;;0.20;0.10;;;;;;;-148.58;100.00;55229.56;5014758;28;20057;-57
2021/06/18 04:01:16;;;;;;;0.10;0.10;;;;;;;-148.58;100.00;55229.56;5014691;28;20040;-58
2021/06/18 04:03:49;;;;;;;0.30;0.10;;;;;;;-148.58;100.00;55229.56;5014809;28;20033;-57
2021/06/18 04:06:15;;;;;;;0.45;0.20;;;;;;;-148.58;100.00;55229.56;5014711;28;20025;-58
2021/06/18 04:08:41;;;;;;;0.35;0.10;;;;;;;-148.58;100.00;55229.56;5014724;28;20101;-57
2021/06/18 04:11:08;;;;;;;0.10;0.10;;;;;;;-148.58;100.00;55229.56;5014669;28;20126;-58
2021/06/18 04:13:35;;;;;;;0.25;0.10;;;;;;;-148.58;100.00;55229.56;5014767;28;20427;-57
2021/06/18 04:16:01;;;;;;;0.10;0.10;;;;;;;-148.58;100.00;55229.56;5014819;28;20022;-58
2021/06/18 04:18:26;;;;;;;0.13;0.10;;;;;;;-148.58;100.00;55229.56;5014826;28;20556;-57
2021/06/18 04:20:53;;;;;;;0.57;0.30;;;;;;;-148.58;100.00;55229.56;5014313;28;20034;-58
2021/06/18 04:23:30;;;;;;;0.20;0.10;;;;;;;-148.58;100.00;55229.56;5014536;28;20034;-57
2021/06/18 04:26:00;;;;;;;0.47;0.05;;;;;;;-148.58;100.00;55229.56;5014284;28;20516;-58
2021/06/18 04:28:26;;;;;;;0.65;0.22;;;;;;;-148.58;100.00;55229.56;5032196;28;20048;-58
2021/06/18 04:30:52;;;;;;;0.15;0.10;;;;;;;-148.58;100.00;55229.56;5033965;28;20373;-58
2021/06/18 04:33:17;;;;;;;0.35;0.10;;;;;;;-148.58;100.00;55229.56;5034069;28;20029;-58
2021/06/18 04:35:43;;;;;;;0.30;0.10;;;;;;;-148.58;100.00;55229.56;5034074;28;20029;-57
2021/06/18 04:38:08;;;;;;;0.10;0.10;;;;;;;-148.58;100.00;55229.56;5034727;28;20101;-58
2021/06/18 04:40:33;;;;;;;0.57;0.10;;;;;;;-148.58;100.00;55229.56;5033284;28;20036;-58
2021/06/18 04:42:59;;;;;;;0.05;0.05;;;;;;;-148.58;100.00;55229.56;5033813;28;20018;-58
2021/06/18 04:45:25;;;;;;;0.65;0.10;;;;;;;-148.58;100.00;55229.56;5033912;28;20167;-57
2021/06/18 04:47:51;;;;;;;0.08;0.05;;;;;;;-148.58;100.00;55229.56;5033672;28;20072;-58
2021/06/18 04:50:16;;;;;;;0.10;0.10;;;;;;;-148.58;100.00;55229.56;5033816;28;20115;-57
2021/06/18 04:52:42;;;;;;;0.40;0.10;;;;;;;-148.58;100.00;55229.56;5033600;28;20036;-58
2021/06/18 04:55:10;;;;;;;0.35;0.10;;;;;;;-148.58;100.00;55229.56;5033549;28;20025;-57
2021/06/18 04:57:35;;;;;;;1.00;0.10;;;;;;;-148.58;100.00;55229.56;5033303;28;20491;-58
2021/06/18 05:00:00;;;;;;;0.38;0.10;;;;;;;-148.58;100.00;55229.56;5033151;28;20021;-57
2021/06/18 05:02:26;;;;;;;0.17;0.13;;;;;;;-148.58;100.00;55229.56;5031812;28;20048;-58
2021/06/18 05:04:51;;;;;;;0.55;0.40;;;;;;;-148.58;100.00;55229.56;5032728;28;20033;-58
2021/06/18 05:07:16;;;;;;;0.20;0.05;;;;;;;-148.58;100.00;55229.56;5033487;28;20025;-58
2021/06/18 05:09:42;;;;;;;0.22;0.00;;;;;;;-148.58;100.00;55229.56;5033545;28;20415;-58
2021/06/18 05:12:07;;;;;;;0.32;0.10;;;;;;;-148.58;100.00;55229.56;5033280;28;20365;-57
2021/06/18 05:14:33;;;;;;;0.75;0.20;;;;;;;-148.58;100.00;55229.56;5033284;28;20025;-58
2021/06/18 05:16:58;;;;;;;0.95;0.05;;;;;;;-148.58;100.00;55229.56;5032900;28;20029;-57
2021/06/18 05:19:23;;;;;;;1.85;0.30;;;;;;;-148.58;100.00;55229.56;5033344;28;20056;-58
2021/06/18 05:21:48;;;;;;;1.80;0.30;;;;;;;-148.58;100.00;55229.56;5032966;28;20028;-57
2021/06/18 05:24:14;;;;;;;1.10;0.10;;;;;;;-148.58;100.00;55229.56;5033233;28;20471;-58
2021/06/18 05:26:40;;;;;;;0.50;0.10;;;;;;;-148.58;100.00;55229.56;5032818;28;20034;-57
2021/06/18 05:29:05;;;;;;;0.22;0.10;;;;;;;-148.58;100.00;55229.56;5032870;28;20025;-58
2021/06/18 05:31:30;;;;;;;0.08;0.03;;;;;;;-148.58;100.00;55229.56;5015418;28;20028;-57
2021/06/18 05:33:55;;;;;;;0.00;0.00;;;;;;;-148.58;100.00;55229.56;5033151;28;20144;-58
2021/06/18 05:36:21;;;;;;;0.20;0.10;;;;;;;-148.58;100.00;55229.56;5033039;28;20376;-58
2021/06/18 05:38:46;;;;;;;0.90;0.03;;;;;;;-148.58;100.00;55229.56;5032669;28;20033;-58
2021/06/18 05:41:11;;;;;;;0.08;0.00;;;;;;;-148.58;100.00;55229.56;5032780;28;20112;-58
2021/06/18 05:43:37;;;;;;;1.02;0.20;;;;;;;-148.58;100.00;55229.56;5032471;28;20053;-57
2021/06/18 05:46:02;;;;;;;0.40;0.10;;;;;;;-148.58;100.00;55229.56;5032734;28;20038;-58
2021/06/18 05:48:28;;;;;;;0.10;0.00;;;;;;;-148.58;100.00;55229.56;5032824;28;20069;-57
2021/06/18 05:50:53;;;;;;;0.10;0.10;;;;;;;-148.58;100.00;55229.56;5032502;28;20086;-58
2021/06/18 05:53:20;;;;;;;0.20;0.10;;;;;;;-148.58;100.00;55229.56;5032689;28;20025;-58
2021/06/18 05:55:46;;;;;;;0.45;0.10;;;;;;;-148.58;100.00;55229.56;5032555;28;20025;-58
2021/06/18 05:58:11;;;;;;;0.00;0.00;;;;;;;-148.58;100.00;55229.56;5032386;28;20076;-57
2021/06/18 06:00:36;;;;;;;0.45;0.10;;;;;;;-148.58;100.00;55229.56;5032503;28;20033;-59
2021/06/18 06:03:02;;;;;;;0.40;0.10;;;;;;;-148.58;100.00;55229.56;5032200;28;20081;-58
2021/06/18 06:05:27;;;;;;;0.43;0.15;;;;;;;-148.58;100.00;55229.56;5032550;28;20030;-58
2021/06/18 06:07:54;;;;;;;0.30;0.08;;;;;;;-148.58;100.00;55229.56;5032412;28;20029;-58
2021/06/18 06:10:20;;;;;;;1.35;0.25;;;;;;;-148.58;100.00;55229.56;5032613;28;20021;-58
2021/06/18 06:12:45;;;;;;;0.20;0.05;;;;;;;-148.58;100.00;55229.56;5032346;28;20017;-58
2021/06/18 06:15:11;;;;;;;0.13;0.00;;;;;;;-148.58;100.00;55229.56;5033017;28;20033;-57
2021/06/18 06:17:36;;;;;;;0.95;0.20;;;;;;;-148.58;100.00;55229.56;5036534;28;20450;-58
2021/06/18 06:20:04;;;;;;;0.25;0.00;;;;;;;-148.58;100.00;55229.56;5037214;28;20028;-57
2021/06/18 06:22:29;;;;;;;0.00;0.00;;;;;;;-148.58;100.00;55229.56;5035962;28;20021;-57
2021/06/18 06:24:54;;;;;;;0.40;0.00;;;;;;;-148.58;100.00;55229.56;5036313;28;20029;-57
2021/06/18 06:27:19;;;;;;;0.35;0.00;;;;;;;-148.58;100.00;55229.56;5036167;28;20468;-58
2021/06/18 06:29:45;;;;;;;0.47;0.00;;;;;;;-148.58;100.00;55229.56;5032582;28;20482;-57
2021/06/18 06:32:10;;;;;;;0.75;0.15;;;;;;;-148.58;100.00;55229.56;5023695;28;20071;-58
2021/06/18 06:34:35;;;;;;;0.10;0.00;;;;;;;-148.58;100.00;55229.56;5016488;28;20068;-57
2021/06/18 06:37:01;;;;;;;0.28;0.20;;;;;;;-148.58;100.00;55229.56;5033722;28;20041;-57
2021/06/18 06:39:26;;;;;;;0.20;0.00;;;;;;;-148.58;100.00;55229.56;5056044;28;20036;-56
2021/06/18 06:41:51;;;;;;;0.35;0.17;;;;;;;-148.58;100.00;55229.56;5048043;28;20044;-58
2021/06/18 06:44:16;;;;;;;0.90;0.30;;;;;;;-148.58;100.00;55229.56;5036121;28;20025;-58
2021/06/18 06:46:42;;;;;;;0.40;0.10;;;;;;;-148.58;100.00;55229.56;5035158;28;20025;-58
2021/06/18 06:49:07;;;;;;;0.63;0.20;;;;;;;-148.58;100.00;55229.56;5041539;28;20029;-58
2021/06/18 06:51:32;;;;;;;0.57;0.10;;;;;;;-148.58;100.00;55229.56;5016131;28;20389;-58
2021/06/18 06:53:58;;;;;;;0.40;0.08;;;;;;;-148.58;100.00;55229.56;5015915;28;20500;-58
2021/06/18 06:56:23;;;;;;;0.20;0.10;;;;;;;-148.58;100.00;55229.56;5018573;28;20053;-57
2021/06/18 06:58:49;;;;;;;0.38;0.10;;;;;;;-148.58;100.00;55229.56;5035392;28;20022;-58
2021/06/18 07:01:14;;;;;;;1.10;0.10;;;;;;;-148.58;100.00;55229.56;5035501;28;20018;-57
2021/06/18 07:03:40;;;;;;;0.10;0.08;;;;;;;-148.58;100.00;55229.56;5035236;28;20030;-58
2021/06/18 07:06:07;;;;;;;0.00;0.00;;;;;;;-148.58;100.00;55229.56;5029915;28;20025;-57
2021/06/18 07:08:32;;;;;;;0.10;0.00;;;;;;;-148.58;100.00;55229.56;5035497;28;20109;-58
2021/06/18 07:10:58;;;;;;;0.08;0.00;;;;;;;-148.58;100.00;55229.56;5035413;28;20108;-57
2021/06/18 07:13:23;;;;;;;0.45;0.10;;;;;;;-148.58;100.00;55229.56;5021195;28;20071;-57
2021/06/18 07:15:50;;;;;;;0.38;0.00;;;;;;;-148.58;100.00;55229.56;5015046;28;20587;-58
2021/06/18 07:18:15;;;;;;;0.30;0.00;;;;;;;-148.58;100.00;55229.56;5034372;28;20013;-57
2021/06/18 07:20:41;;;;;;;2.45;0.32;;;;;;;-148.58;100.00;55229.56;5034652;28;20036;-58
2021/06/18 07:23:06;;;;;;;0.17;0.15;;;;;;;-148.58;100.00;55229.56;5046762;28;20064;-58
2021/06/18 07:25:32;;;;;;;0.43;0.10;;;;;;;-148.58;100.00;55229.56;5046040;28;20037;-58
2021/06/18 07:27:57;;;;;;;0.15;0.00;;;;;;;-148.58;100.00;55229.56;5035341;28;20026;-58
2021/06/18 07:30:23;;;;;;;0.08;0.00;;;;;;;-148.58;100.00;55229.56;5050831;28;20513;-58
2021/06/18 07:32:49;;;;;;;0.05;0.00;;;;;;;-148.58;100.00;55229.56;5048608;28;20052;-57
2021/06/18 07:35:15;;;;;;;0.10;0.00;;;;;;;-148.58;100.00;55229.56;5046751;28;20112;-56
2021/06/18 07:37:43;;;;;;;0.15;0.10;;;;;;;-148.58;100.00;55229.56;5033750;28;20104;-57
2021/06/18 07:40:11;;;;;;;0.03;0.03;;;;;;;-148.58;100.00;55229.56;5034765;28;20045;-57
2021/06/18 07:42:36;;;;;;;0.30;0.00;;;;;;;-148.58;100.00;55229.56;5033597;28;20100;-56
2021/06/18 07:45:02;;;;;;;0.10;0.00;;;;;;;-148.58;100.00;55229.56;5034663;28;20551;-57
2021/06/18 07:47:27;;;;;;;0.30;0.10;;;;;;;-148.58;100.00;55229.56;5034957;28;20033;-56
2021/06/18 07:49:53;;;;;;;0.63;0.10;;;;;;;-148.58;100.00;55229.56;5033442;28;20021;-57
2021/06/18 07:52:18;;;;;;;0.00;0.00;;;;;;;-148.58;100.00;55229.56;5034878;28;20384;-56
2021/06/18 07:54:43;;;;;;;1.20;0.10;;;;;;;-148.58;100.00;55229.56;5034672;28;20030;-57
2021/06/18 07:57:09;;;;;;;0.73;0.20;;;;;;;-148.58;100.00;55229.56;5034518;28;20021;-56
2021/06/18 07:59:34;;;;;;;0.00;0.00;;;;;;;-148.58;100.00;55229.56;5034693;28;20447;-57
2021/06/18 08:02:00;;;;;;;0.13;0.10;;;;;;;-148.58;100.00;55229.56;5033930;28;20034;-57
2021/06/18 08:04:25;;;;;;;0.10;0.00;;;;;;;-148.58;100.00;55229.56;5033061;28;20034;-57
2021/06/18 08:06:50;;;;;;;0.00;0.00;;;;;;;-148.58;100.00;55229.56;5034401;28;20025;-57
2021/06/18 08:09:16;;;;;;;0.20;0.10;;;;;;;-148.58;100.00;55229.56;5038104;28;20126;-57
2021/06/18 08:11:41;;;;;;;0.10;0.10;;;;;;;-148.58;100.00;55229.56;5043287;28;20013;-58
2021/06/18 08:14:06;;;;;;;0.13;0.10;;;;;;;-148.58;100.00;55229.56;5043193;28;20029;-57
2021/06/18 08:16:32;;;;;;;0.30;0.05;;;;;;;-148.58;100.00;55229.56;5049366;28;20060;-58
2021/06/18 08:18:57;;;;;;;0.38;0.17;;;;;;;-148.58;100.00;55229.56;5047979;28;20475;-56
2021/06/18 08:21:23;;;;;;;0.00;0.00;;;;;;;-148.58;100.00;55229.56;5054135;28;20460;-58
2021/06/18 08:23:48;;;;;;;0.50;0.03;;;;;;;-148.58;100.00;55229.56;5036675;28;20025;-56
2021/06/18 08:26:13;;;;;;;0.75;0.10;;;;;;;-148.58;100.00;55229.56;5036412;28;20108;-57
2021/06/18 08:28:38;;;;;;;0.00;0.00;;;;;;;-148.58;100.00;55229.56;5040881;28;20049;-56
2021/06/18 08:31:05;;;;;;;0.15;0.10;;;;;;;-148.58;100.00;55229.56;5043672;28;20017;-56
2021/06/18 08:33:34;;;;;;;0.30;0.20;;;;;;;-148.58;100.00;55229.56;5040877;28;20440;-56
2021/06/18 08:36:01;;;;;;;0.08;0.00;;;;;;;-148.58;100.00;55229.56;5040841;28;20021;-57
2021/06/18 08:38:26;;;;;;;0.13;0.10;;;;;;;-148.58;100.00;55229.56;5033049;28;20021;-57
2021/06/18 08:40:52;;;;;;;0.00;0.00;;;;;;;-148.58;100.00;55229.56;5030326;28;20384;-56
2021/06/18 08:43:18;;;;;;;0.00;0.00;;;;;;;-148.58;100.00;55229.56;5032309;28;20033;-56
2021/06/18 08:45:43;;;;;;;0.40;0.10;;;;;;;-148.58;100.00;55229.56;5026659;28;20023;-56
2021/06/18 08:48:08;;;;;;;0.85;0.43;;;;;;;-148.58;100.00;55229.56;5014313;28;20072;-56
2021/06/18 08:50:34;;;;;;;0.13;0.03;;;;;;;-148.58;100.00;55229.56;5013962;28;20025;-56
2021/06/18 08:53:01;;;;;;;0.43;0.10;;;;;;;-148.58;100.00;55229.56;5020311;28;20017;-56
2021/06/18 08:55:29;;;;;;;0.20;0.08;;;;;;;-148.58;100.00;55229.56;5033198;28;20116;-56
2021/06/18 08:58:00;;;;;;;0.50;0.10;;;;;;;-148.58;100.00;55229.56;5032666;28;20071;-56
2021/06/18 09:00:27;;;;;;;1.20;0.10;;;;;;;-148.58;100.00;55229.56;5035064;28;20419;-57
2021/06/18 09:02:53;;;;;;;0.22;0.10;;;;;;;-148.58;100.00;55229.56;5018253;28;20572;-56
2021/06/18 09:05:21;;;;;;;0.63;0.10;;;;;;;-148.58;100.00;55229.56;5039333;28;20033;-57
2021/06/18 09:07:55;;;;;;;0.30;0.10;;;;;;;-148.58;100.00;55229.56;5035538;28;20441;-56
2021/06/18 09:10:29;;;;;;;0.30;0.10;;;;;;;-148.58;100.00;55229.56;5050782;28;20531;-57
2021/06/18 09:13:19;;;;;;;1.50;0.20;;;;;;;-148.58;100.00;55229.56;5032563;28;20029;-56
2021/06/18 09:15:54;;;;;;;0.10;0.10;;;;;;;-148.58;100.00;55229.56;5032472;28;20431;-57
2021/06/18 09:18:25;;;;;;;0.55;0.20;;;;;;;-148.58;100.00;55229.56;5032498;28;20025;-57
2021/06/18 09:20:53;;;;;;;0.10;0.10;;;;;;;-148.58;100.00;55229.56;5032237;28;20022;-57
2021/06/18 09:24:05;;;;;;;0.43;0.13;;;;;;;-148.58;100.00;55229.56;5033464;28;20092;-57
2021/06/18 09:26:35;;;;;;;0.65;0.20;;;;;;;-148.58;100.00;55229.56;5031158;28;20043;-56
2021/06/18 09:29:05;;;;;;;0.10;0.10;;;;;;;-148.58;100.00;55229.56;5028404;28;20071;-57
2021/06/18 09:31:55;;;;;;;0.63;0.10;;;;;;;-148.58;100.00;55229.56;5034434;28;20037;-56
2021/06/18 09:37:38;;;;;;;0.30;0.10;;;;;;;-148.58;100.00;55229.56;5035325;28;20386;-57
2021/06/18 09:40:17;;;;;;;0.10;0.10;;;;;;;-148.58;100.00;55229.56;5050866;28;20051;-56
2021/06/18 09:43:08;;;;;;;0.88;0.10;;;;;;;-148.58;100.00;55229.56;5050564;28;20012;-57
2021/06/18 09:45:35;;;;;;;0.57;0.17;;;;;;;-148.58;100.00;55229.56;5028253;28;20588;-56
2021/06/18 09:48:08;;;;;;;0.20;0.10;;;;;;;-148.58;100.00;55229.56;5032164;28;20026;-57
2021/06/18 09:50:36;;;;;;;0.55;0.10;;;;;;;-148.58;100.00;55229.56;5031222;28;20415;-56
2021/06/18 09:53:24;;;;;;;0.52;0.20;;;;;;;-148.58;100.00;55229.56;5034244;28;20448;-56
2021/06/18 09:56:07;;;;;;;0.35;0.10;;;;;;;-148.58;100.00;55229.56;5032059;28;20037;-56
2021/06/18 09:58:45;;;;;;;0.60;0.20;;;;;;;-148.58;100.00;55229.56;5032616;28;20037;-56
2021/06/18 10:01:17;;;;;;;0.40;0.15;;;;;;;-148.58;100.00;55229.56;5032158;28;20026;-57
2021/06/18 10:04:10;;;;;;;1.02;0.10;;;;;;;-148.58;100.00;55229.56;5031788;28;20025;-56
2021/06/18 10:06:37;;;;;;;0.28;0.10;;;;;;;-148.58;100.00;55229.56;5023669;28;20022;-56
2021/06/18 10:09:05;;;;;;;1.00;0.25;;;;;;;-148.58;100.00;55229.56;5017021;28;20035;-57
2021/06/18 10:11:32;;;;;;;0.28;0.20;;;;;;;-148.58;100.00;55229.56;5038588;28;20037;-56
2021/06/18 10:13:57;;;;;;;1.05;0.17;;;;;;;-148.58;100.00;55229.56;5031277;28;20482;-57
2021/06/18 10:16:23;;;;;;;0.68;0.20;;;;;;;-148.58;100.00;55229.56;5031883;28;20048;-56
2021/06/18 10:18:49;;;;;;;0.38;0.30;;;;;;;-148.58;100.00;55229.56;5031067;28;20040;-56
2021/06/18 10:21:17;;;;;;;0.28;0.20;;;;;;;-148.58;100.00;55229.56;5029751;28;20025;-57
2021/06/18 10:23:44;;;;;;;0.85;0.15;;;;;;;-148.58;100.00;55229.56;5030688;28;20109;-57
2021/06/18 10:26:12;;;;;;;0.43;0.10;;;;;;;-148.58;100.00;55229.56;5030573;28;20045;-57
2021/06/18 10:28:38;;;;;;;0.10;0.10;;;;;;;-148.58;100.00;55229.56;5031327;28;20025;-57
2021/06/18 10:31:05;;;;;;;0.57;0.10;;;;;;;-148.58;100.00;55229.56;5030540;28;20021;-56
2021/06/18 10:33:35;;;;;;;0.30;0.10;;;;;;;-148.58;100.00;55229.56;5031355;28;20021;-56
2021/06/18 10:36:08;;;;;;;0.10;0.10;;;;;;;-148.58;100.00;55229.56;5031999;28;20322;-57
2021/06/18 10:38:45;;;;;;;0.38;0.20;;;;;;;-148.58;100.00;55229.56;5031552;28;20025;-57
2021/06/18 10:41:16;;;;;;;0.43;0.22;;;;;;;-148.58;100.00;55229.56;5031777;28;20040;-56
2021/06/18 10:43:44;;;;;;;0.20;0.10;;;;;;;-148.58;100.00;55229.56;5031225;28;20480;-57
2021/06/18 10:46:19;;;;;;;0.35;0.10;;;;;;;-148.58;100.00;55229.56;5031518;28;20028;-56
2021/06/18 10:48:45;;;;;;;0.20;0.00;;;;;;;-148.58;100.00;55229.56;5032131;28;20064;-57
2021/06/18 10:51:38;;;;;;;0.08;0.08;;;;;;;-148.58;100.00;55229.56;5032369;28;20025;-56
2021/06/18 10:54:05;;;;;;;1.85;0.20;;;;;;;-148.58;100.00;55229.56;5031816;28;20025;-56
2021/06/18 10:56:49;;;;;;;0.45;0.40;;;;;;;-148.58;100.00;55229.56;5032145;28;20060;-57
2021/06/18 10:59:26;;;;;;;0.55;0.30;;;;;;;-148.58;100.00;55229.56;5027934;28;20029;-58
2021/06/18 11:01:51;;;;;;;0.10;0.10;;;;;;;-148.58;100.00;55229.56;5027326;28;20091;-58
2021/06/18 11:04:44;;;;;;;2.30;0.63;;;;;;;-148.58;100.00;55229.56;5028367;28;20472;-57
2021/06/18 11:07:20;;;;;;;3.42;1.10;;;;;;;-148.58;100.00;55229.56;5031028;28;20055;-57
2021/06/18 11:09:47;;;;;;;2.65;0.80;;;;;;;-148.58;100.00;55229.56;5030061;28;20021;-58
2021/06/18 11:12:25;;;;;;;2.03;0.70;;;;;;;-148.58;100.00;55229.56;5035349;28;20013;-57
2021/06/18 11:14:52;;;;;;;1.83;0.80;;;;;;;-148.58;100.00;55229.56;5035080;28;20388;-58
2021/06/18 11:18:02;;;;;;;0.95;0.55;;;;;;;-148.58;100.00;55229.56;5035140;28;20452;-57